Time;durP1;ratioP1;P1;durP2;ratioP2;P2;SDS_P1;SDS_P2;PMS_P1;PMS_P2;Temp;Humidity;BMP_temperature;BMP_pressure;BME280_temperature;BME280_humidity;BME280_pressure;Samples;Min_cycle;Max_cycle;Signal;HPM_P1;HPM_P2
2021/12/30 00:02:07;;;;;;;101.78;48.48;;;;;;;4.52;77.58;99795.52;2065576;86;28197;-60
2021/12/30 00:05:10;;;;;;;95.62;47.67;;;;;;;4.50;77.60;99796.91;2065604;86;29904;-59
2021/12/30 00:08:12;;;;;;;95.28;44.90;;;;;;;4.52;77.68;99794.19;2065414;86;31089;-59
2021/12/30 00:11:15;;;;;;;90.42;45.17;;;;;;;4.50;77.72;99784.09;2053128;86;34173;-59
2021/12/30 00:14:16;;;;;;;87.08;44.38;;;;;;;4.50;77.78;99792.93;2024790;87;30201;-59
2021/12/30 00:17:18;;;;;;;83.92;43.68;;;;;;;4.52;77.84;99788.89;2025008;87;27618;-59
2021/12/30 00:20:20;;;;;;;83.75;42.85;;;;;;;4.53;77.87;99785.32;2025069;87;28845;-59
2021/12/30 00:23:22;;;;;;;86.17;44.10;;;;;;;4.54;77.89;99787.94;2036411;87;32222;-60
2021/12/30 00:26:23;;;;;;;89.65;42.58;;;;;;;4.54;77.90;99783.96;2039518;87;34203;-59
2021/12/30 00:29:25;;;;;;;81.00;42.27;;;;;;;4.55;77.93;99785.66;2039488;87;30477;-59
2021/12/30 00:32:27;;;;;;;75.22;41.02;;;;;;;4.56;77.99;99788.73;2039704;87;27714;-59
2021/12/30 00:35:30;;;;;;;75.22;39.27;;;;;;;4.60;78.00;99791.28;2039524;87;29742;-59
2021/12/30 00:38:34;;;;;;;68.28;37.10;;;;;;;4.61;77.99;99800.98;2041335;87;32343;-59
2021/12/30 00:41:36;;;;;;;71.28;37.88;;;;;;;4.61;78.02;99807.17;2043327;86;33119;-59
2021/12/30 00:44:38;;;;;;;77.53;40.33;;;;;;;4.61;77.98;99807.17;2040953;87;29736;-59
2021/12/30 00:47:40;;;;;;;66.05;36.33;;;;;;;4.63;77.99;99796.50;2040286;87;27705;-59
2021/12/30 00:50:42;;;;;;;69.77;37.13;;;;;;;4.62;77.92;99789.45;2043088;87;29949;-59
2021/12/30 00:53:45;;;;;;;62.62;35.85;;;;;;;4.61;77.93;99786.39;2043073;87;32431;-59
2021/12/30 00:56:50;;;;;;;65.90;35.33;;;;;;;4.60;77.87;99785.53;2043318;87;33068;-59
2021/12/30 00:59:52;;;;;;;67.35;35.48;;;;;;;4.60;77.85;99783.33;2040253;87;29665;-59
2021/12/30 01:02:54;;;;;;;66.92;36.35;;;;;;;4.56;77.81;99782.09;2039703;87;27659;-60
2021/12/30 01:05:56;;;;;;;67.37;36.10;;;;;;;4.55;77.77;99779.03;2039136;86;29108;-59
2021/12/30 01:08:59;;;;;;;62.78;34.18;;;;;;;4.53;77.77;99778.25;2041990;87;31534;-59
2021/12/30 01:12:01;;;;;;;60.30;33.78;;;;;;;4.51;77.78;99770.80;2042016;87;33888;-59
2021/12/30 01:15:08;;;;;;;53.05;32.80;;;;;;;4.48;77.87;99768.23;2043069;86;30608;-60
2021/12/30 01:18:24;;;;;;;56.53;32.83;;;;;;;4.47;78.10;99769.16;2042178;86;27649;-60
2021/12/30 01:21:13;;;;;;;60.98;33.90;;;;;;;4.46;78.16;99770.55;2039483;87;29710;-59
2021/12/30 01:24:15;;;;;;;60.52;34.25;;;;;;;4.44;78.20;99777.68;2012999;87;31983;-59
2021/12/30 01:27:17;;;;;;;64.05;33.90;;;;;;;4.43;78.25;99782.09;2010237;88;32935;-59
2021/12/30 01:30:20;;;;;;;60.50;33.65;;;;;;;4.43;78.30;99797.16;2010384;88;29281;-59
2021/12/30 01:33:22;;;;;;;53.42;31.40;;;;;;;4.40;78.40;99784.41;2020087;87;27713;-59
2021/12/30 01:36:26;;;;;;;56.92;31.85;;;;;;;4.40;78.47;99781.75;2024869;87;29782;-59
2021/12/30 01:39:29;;;;;;;59.33;32.40;;;;;;;4.39;78.50;99781.34;2025364;87;31064;-59
2021/12/30 01:42:32;;;;;;;55.50;31.20;;;;;;;4.37;78.56;99788.95;2025019;87;33142;-59
2021/12/30 01:45:35;;;;;;;53.48;30.40;;;;;;;4.36;78.58;99793.84;2016292;87;29379;-59
2021/12/30 01:48:37;;;;;;;54.15;29.63;;;;;;;4.34;78.64;99800.97;2010097;88;27746;-59
2021/12/30 01:51:41;;;;;;;55.80;30.12;;;;;;;4.32;78.72;99804.98;2009781;88;30106;-59
2021/12/30 01:54:43;;;;;;;51.48;29.98;;;;;;;4.31;78.72;99807.22;2011483;87;31051;-59
2021/12/30 01:57:46;;;;;;;52.30;29.57;;;;;;;4.32;78.76;99811.61;2024898;87;33331;-59
2021/12/30 02:00:49;;;;;;;51.88;29.63;;;;;;;4.35;78.81;99814.64;2047071;87;30517;-58
2021/12/30 02:03:52;;;;;;;51.95;28.70;;;;;;;4.36;78.76;99816.38;2047674;86;27668;-58
2021/12/30 02:06:55;;;;;;;50.50;26.82;;;;;;;4.36;78.73;99816.38;2013788;87;29453;-58
2021/12/30 02:10:01;;;;;;;45.73;26.75;;;;;;;4.38;78.79;99829.99;2009859;88;31934;-59
2021/12/30 02:13:02;;;;;;;49.18;27.27;;;;;;;4.40;78.74;99825.51;2009896;87;34340;-59
2021/12/30 02:16:05;;;;;;;52.83;27.30;;;;;;;4.41;78.68;99825.04;2010244;88;29384;-59
2021/12/30 02:19:07;;;;;;;45.03;25.43;;;;;;;4.41;78.67;99828.58;2017260;86;27675;-60
2021/12/30 02:22:10;;;;;;;50.48;26.73;;;;;;;4.43;78.68;99830.31;2027150;86;29490;-59
2021/12/30 02:25:11;;;;;;;47.35;26.23;;;;;;;4.43;78.65;99830.31;2047258;87;31509;-59
2021/12/30 02:28:15;;;;;;;46.35;24.02;;;;;;;4.43;78.60;99837.80;2046730;87;34207;-59
2021/12/30 02:31:22;;;;;;;40.05;22.40;;;;;;;4.43;78.64;99834.29;2039178;86;29410;-59
2021/12/30 02:34:23;;;;;;;40.25;22.75;;;;;;;4.40;78.57;99842.75;2010364;88;28186;-59
2021/12/30 02:37:25;;;;;;;44.65;23.02;;;;;;;4.41;78.62;99844.48;2010249;88;30119;-59
2021/12/30 02:40:41;;;;;;;42.65;22.93;;;;;;;4.41;78.66;99837.86;2009867;88;31497;-59
2021/12/30 02:43:45;;;;;;;35.52;21.17;;;;;;;4.43;78.66;99836.47;2023994;87;33564;-59
2021/12/30 02:46:52;;;;;;;38.75;22.62;;;;;;;4.43;78.64;99839.13;2024955;87;29502;-58
2021/12/30 02:49:54;;;;;;;37.88;20.72;;;;;;;4.43;78.62;99832.97;2025101;87;27714;-59
2021/12/30 02:52:56;;;;;;;36.63;20.05;;;;;;;4.41;78.59;99838.30;2016768;87;29559;-61
2021/12/30 02:56:00;;;;;;;32.40;19.82;;;;;;;4.39;78.55;99841.45;2009821;88;30477;-58
2021/12/30 02:59:03;;;;;;;35.50;19.32;;;;;;;4.39;78.57;99847.64;2009776;88;33833;-59
2021/12/30 03:02:06;;;;;;;33.15;19.60;;;;;;;4.40;78.57;99850.70;2010621;87;29331;-59
2021/12/30 03:05:09;;;;;;;30.85;16.70;;;;;;;4.40;78.61;99834.80;2010266;88;27690;-59
2021/12/30 03:08:11;;;;;;;31.85;17.70;;;;;;;4.38;78.52;99837.09;1991807;88;28889;-59
2021/12/30 03:11:14;;;;;;;29.63;17.37;;;;;;;4.35;78.50;99834.53;2010089;87;31088;-59
2021/12/30 03:14:16;;;;;;;28.50;17.15;;;;;;;4.32;78.50;99835.95;2009732;87;34174;-59
2021/12/30 03:17:19;;;;;;;27.75;17.67;;;;;;;4.30;78.58;99832.03;1992120;89;28795;-60
2021/12/30 03:20:21;;;;;;;28.85;17.30;;;;;;;4.31;78.62;99836.39;2025648;87;27920;-59
2021/12/30 03:23:23;;;;;;;33.42;18.45;;;;;;;4.32;78.68;99839.92;2036342;86;29043;-58
2021/12/30 03:26:25;;;;;;;33.38;17.60;;;;;;;4.33;78.70;99838.54;2047375;87;31545;-59
2021/12/30 03:29:27;;;;;;;29.87;17.52;;;;;;;4.35;78.68;99834.53;2038780;87;32952;-60
2021/12/30 03:32:29;;;;;;;31.68;19.02;;;;;;;4.34;78.65;99846.05;2009129;88;30529;-61
2021/12/30 03:35:31;;;;;;;26.70;17.27;;;;;;;4.34;78.67;99848.23;2009808;88;28493;-60
2021/12/30 03:38:37;;;;;;;30.97;17.80;;;;;;;4.35;78.66;99859.73;2009822;88;28721;-61
2021/12/30 03:41:39;;;;;;;31.55;18.90;;;;;;;4.34;78.62;99859.31;2010179;88;30351;-60
2021/12/30 03:44:41;;;;;;;25.72;15.90;;;;;;;4.33;78.58;99866.86;2019505;87;33764;-60
2021/12/30 03:47:47;;;;;;;25.88;15.32;;;;;;;4.33;78.60;99868.19;2025111;87;30107;-61
2021/12/30 03:50:49;;;;;;;;;;;;;;;4.33;78.59;99869.51;2027909;87;27679;-61
2021/12/30 03:53:54;;;;;;;28.52;17.00;;;;;;;4.32;78.54;99865.13;2025040;87;29555;-60
2021/12/30 03:56:57;;;;;;;30.02;17.15;;;;;;;4.29;78.57;99854.16;2016935;87;31010;-60
2021/12/30 03:59:59;;;;;;;25.80;16.37;;;;;;;4.28;78.59;99864.35;2009930;88;33815;-60
2021/12/30 04:03:01;;;;;;;26.87;16.12;;;;;;;4.27;78.64;99867.92;2010049;88;29729;-60
2021/12/30 04:06:02;;;;;;;25.77;16.07;;;;;;;4.27;78.62;99866.59;2014075;87;27648;-61
2021/12/30 04:09:06;;;;;;;30.17;17.23;;;;;;;4.28;78.63;99882.03;2024847;87;29967;-61
2021/12/30 04:12:09;;;;;;;23.98;16.70;;;;;;;4.27;78.57;99877.20;2025079;87;31093;-61
2021/12/30 04:15:11;;;;;;;28.27;16.70;;;;;;;4.25;78.58;99871.92;2024791;87;33785;-61
2021/12/30 04:18:13;;;;;;;25.88;17.12;;;;;;;4.25;78.55;99879.87;2011001;87;30598;-60
2021/12/30 04:21:20;;;;;;;25.60;16.77;;;;;;;4.23;78.50;99874.22;2010169;88;27702;-60
2021/12/30 04:24:21;;;;;;;30.32;17.85;;;;;;;4.21;78.52;99883.56;2027125;87;28679;-59
2021/12/30 04:27:23;;;;;;;36.28;19.95;;;;;;;4.22;78.54;99889.72;2043413;86;31569;-62
2021/12/30 04:30:26;;;;;;;31.27;17.82;;;;;;;4.21;78.58;99890.19;2043060;86;34203;-59
2021/12/30 04:33:28;;;;;;;52.30;28.83;;;;;;;4.20;78.61;99894.20;2043489;87;29724;-60
2021/12/30 04:36:30;;;;;;;57.83;31.17;;;;;;;4.18;78.70;99894.25;2039933;87;27653;-59
2021/12/30 04:39:32;;;;;;;60.08;30.92;;;;;;;4.19;78.71;99881.41;2039739;87;29067;-61
2021/12/30 04:42:33;;;;;;;55.12;30.15;;;;;;;4.20;78.74;99884.48;2040352;87;31082;-60
2021/12/30 04:45:37;;;;;;;53.58;29.18;;;;;;;4.22;78.72;99873.81;2043077;86;33026;-59
2021/12/30 04:48:39;;;;;;;62.43;34.33;;;;;;;4.23;78.74;99874.22;2042099;86;30131;-59
2021/12/30 04:51:42;;;;;;;59.90;34.05;;;;;;;4.22;78.74;99875.98;2039441;87;27773;-59
2021/12/30 04:54:44;;;;;;;46.23;26.82;;;;;;;4.23;78.78;99871.09;2042753;87;28827;-59
2021/12/30 04:57:46;;;;;;;44.93;26.90;;;;;;;4.25;78.83;99883.00;2042952;87;32284;-59
2021/12/30 05:00:47;;;;;;;41.53;25.92;;;;;;;4.26;78.80;99883.41;2043333;87;34103;-59
2021/12/30 05:03:49;;;;;;;42.67;24.30;;;;;;;4.29;78.79;99879.79;2043078;87;29270;-59
2021/12/30 05:06:51;;;;;;;33.05;21.10;;;;;;;4.29;78.78;99893.94;2039627;87;27558;-59
2021/12/30 05:09:53;;;;;;;31.70;19.73;;;;;;;4.30;78.82;99904.95;2039278;87;29965;-59
2021/12/30 05:12:55;;;;;;;33.05;19.92;;;;;;;4.32;78.80;99908.40;2039492;87;31022;-59
2021/12/30 05:15:57;;;;;;;29.85;18.62;;;;;;;4.33;78.80;99920.75;2042393;87;34266;-59
2021/12/30 05:18:59;;;;;;;31.02;20.05;;;;;;;4.33;78.79;99914.11;2043374;87;30676;-59
2021/12/30 05:22:01;;;;;;;29.63;18.73;;;;;;;4.33;78.75;99911.47;2041208;87;27698;-60
2021/12/30 05:25:05;;;;;;;30.50;18.32;;;;;;;4.34;78.79;99912.34;2019601;87;29936;-59
2021/12/30 05:28:07;;;;;;;26.57;18.60;;;;;;;4.35;78.84;99923.38;2010081;87;31160;-59
2021/12/30 05:31:09;;;;;;;32.23;19.75;;;;;;;4.35;78.82;99926.88;2010125;88;34103;-59
2021/12/30 05:34:10;;;;;;;34.63;21.55;;;;;;;4.37;78.85;99927.70;2021534;87;30559;-59
2021/12/30 05:37:12;;;;;;;35.88;22.58;;;;;;;4.39;78.79;99927.64;2025394;87;28286;-59
2021/12/30 05:40:18;;;;;;;30.92;20.80;;;;;;;4.40;78.82;99936.02;2025184;87;29837;-59
2021/12/30 05:43:20;;;;;;;31.25;21.65;;;;;;;4.40;78.79;99928.94;2018061;87;31853;-59
2021/12/30 05:46:22;;;;;;;35.60;22.93;;;;;;;4.40;78.75;99925.41;2010006;88;34126;-59
2021/12/30 05:49:24;;;;;;;30.37;20.37;;;;;;;4.41;78.80;99921.84;2009767;88;30354;-59
2021/12/30 05:52:25;;;;;;;30.08;20.60;;;;;;;4.43;78.84;99921.81;2039915;86;28411;-59
2021/12/30 05:55:31;;;;;;;27.55;18.52;;;;;;;4.44;78.85;99928.38;2009349;88;28598;-59
2021/12/30 05:58:33;;;;;;;26.40;16.90;;;;;;;4.45;78.84;99921.31;2010135;88;31062;-59
2021/12/30 06:01:35;;;;;;;29.77;18.05;;;;;;;4.46;78.86;99921.73;2010186;88;33782;-59
2021/12/30 06:04:37;;;;;;;25.57;17.35;;;;;;;4.47;78.88;99923.47;2010944;87;29260;-59
2021/12/30 06:07:39;;;;;;;27.65;17.12;;;;;;;4.49;78.94;99930.89;2010036;88;27736;-59
2021/12/30 06:10:42;;;;;;;31.42;18.42;;;;;;;4.50;78.89;99935.28;2010261;88;30051;-59
2021/12/30 06:13:44;;;;;;;25.25;17.02;;;;;;;4.52;78.96;99928.15;2010175;88;31418;-59
2021/12/30 06:16:46;;;;;;;27.55;17.00;;;;;;;4.53;78.93;99927.23;2010336;88;33373;-59
2021/12/30 06:19:48;;;;;;;25.62;17.20;;;;;;;4.55;78.94;99926.73;2021037;87;29293;-59
2021/12/30 06:22:49;;;;;;;23.07;16.60;;;;;;;4.56;78.99;99933.30;2032590;86;27732;-59
2021/12/30 06:25:51;;;;;;;28.25;18.57;;;;;;;4.58;78.98;99943.89;2046664;86;29322;-59
2021/12/30 06:28:53;;;;;;;31.33;20.00;;;;;;;4.60;79.01;99951.34;2046814;87;31670;-59
2021/12/30 06:31:54;;;;;;;29.32;20.15;;;;;;;4.62;79.09;99953.50;2031287;86;34265;-59
2021/12/30 06:34:56;;;;;;;32.28;22.17;;;;;;;4.64;79.19;99958.75;2025020;87;29134;-59
2021/12/30 06:38:00;;;;;;;35.73;21.02;;;;;;;4.66;79.30;99969.71;2024721;87;27687;-59
2021/12/30 06:41:02;;;;;;;34.73;21.65;;;;;;;4.69;79.31;99973.60;2019927;87;29219;-59
2021/12/30 06:44:05;;;;;;;33.18;21.85;;;;;;;4.72;79.37;99973.95;2010111;88;31740;-59
2021/12/30 06:47:06;;;;;;;35.25;22.13;;;;;;;4.75;79.41;99970.36;2010116;88;34268;-59
2021/12/30 06:50:11;;;;;;;31.20;20.27;;;;;;;4.78;79.43;99968.47;2010789;87;29861;-59
2021/12/30 06:53:12;;;;;;;34.00;21.83;;;;;;;4.81;79.45;99984.30;2025161;87;27682;-60
2021/12/30 06:56:15;;;;;;;32.13;18.87;;;;;;;4.83;79.47;99981.59;2024901;87;30055;-59
2021/12/30 06:59:17;;;;;;;31.05;20.62;;;;;;;4.85;79.53;99987.72;2024726;87;32295;-59
2021/12/30 07:02:19;;;;;;;31.55;20.17;;;;;;;4.88;79.60;99985.45;2013341;87;34186;-60
2021/12/30 07:05:23;;;;;;;30.82;20.20;;;;;;;4.90;79.64;99982.27;2010198;88;30142;-59
2021/12/30 07:08:25;;;;;;;31.95;20.85;;;;;;;4.93;79.69;99992.34;2010211;88;27628;-59
2021/12/30 07:11:27;;;;;;;38.15;21.02;;;;;;;4.95;79.70;99997.16;2015066;87;28696;-59
2021/12/30 07:14:29;;;;;;;34.58;21.65;;;;;;;4.98;79.77;99991.72;2025000;87;31766;-59
2021/12/30 07:17:32;;;;;;;34.98;21.17;;;;;;;5.01;79.85;99992.11;2024965;87;34181;-59
2021/12/30 07:20:34;;;;;;;36.10;22.45;;;;;;;5.05;79.86;99988.89;2024998;87;30123;-59
2021/12/30 07:23:36;;;;;;;35.50;22.00;;;;;;;5.07;79.96;99989.71;2025210;87;27734;-59
2021/12/30 07:26:38;;;;;;;35.98;21.80;;;;;;;5.11;79.99;99996.19;2022630;87;29717;-59
2021/12/30 07:29:40;;;;;;;32.40;21.45;;;;;;;5.13;80.04;99991.70;2009991;88;31196;-59
2021/12/30 07:32:43;;;;;;;34.78;21.33;;;;;;;5.17;80.07;99996.01;2009890;88;34150;-59
2021/12/30 07:35:45;;;;;;;35.03;22.15;;;;;;;5.22;80.13;99996.30;2010256;88;29364;-60
2021/12/30 07:38:48;;;;;;;34.25;23.15;;;;;;;5.26;80.14;100006.80;2022660;87;27753;-59
2021/12/30 07:41:50;;;;;;;37.70;23.52;;;;;;;5.29;80.14;99997.41;2025119;87;29061;-60
2021/12/30 07:44:52;;;;;;;40.00;25.17;;;;;;;5.33;80.14;100011.45;2020851;87;32224;-60
2021/12/30 07:47:57;;;;;;;37.33;24.12;;;;;;;5.35;80.15;100008.28;2010104;88;33476;-60
2021/12/30 07:51:00;;;;;;;37.58;25.48;;;;;;;5.38;80.13;100011.28;2010085;88;30009;-60
2021/12/30 07:54:02;;;;;;;39.15;25.85;;;;;;;5.41;80.18;100017.36;2010409;87;27631;-60
2021/12/30 07:57:07;;;;;;;42.08;27.35;;;;;;;5.45;80.28;100021.66;2010278;88;29903;-60
2021/12/30 08:00:12;;;;;;;;;;;;;;;5.49;80.29;100021.09;2012091;88;32358;-60
2021/12/30 08:03:14;;;;;;;40.67;26.30;;;;;;;5.53;80.31;100024.53;2011530;86;32966;-60
2021/12/30 08:06:17;;;;;;;39.13;25.37;;;;;;;5.55;80.33;100024.00;2023812;87;30225;-60
2021/12/30 08:09:19;;;;;;;36.63;24.90;;;;;;;5.58;80.40;100027.44;2024841;87;27754;-63
2021/12/30 08:12:21;;;;;;;36.38;24.35;;;;;;;5.62;80.48;100026.87;2024875;87;29923;-60
2021/12/30 08:15:24;;;;;;;40.92;24.37;;;;;;;5.67;80.47;100029.36;2016788;87;32101;-60
2021/12/30 08:18:26;;;;;;;38.02;25.72;;;;;;;5.70;80.45;100026.61;2010228;88;33008;-59
2021/12/30 08:21:28;;;;;;;33.55;25.15;;;;;;;5.74;80.51;100034.42;2010346;88;28659;-60
2021/12/30 08:24:30;;;;;;;35.43;24.45;;;;;;;5.79;80.51;100031.62;2025878;87;27667;-60
2021/12/30 08:27:33;;;;;;;40.65;25.30;;;;;;;5.83;80.53;100033.71;2043344;87;29504;-60
2021/12/30 08:30:35;;;;;;;34.65;23.38;;;;;;;5.87;80.61;100035.35;2043098;87;32304;-60
2021/12/30 08:33:37;;;;;;;35.95;23.92;;;;;;;5.92;80.59;100041.36;2040579;87;33927;-59
2021/12/30 08:36:39;;;;;;;32.95;22.80;;;;;;;5.96;80.59;100044.33;2039336;87;30687;-60
2021/12/30 08:39:42;;;;;;;34.15;24.27;;;;;;;6.01;80.63;100044.19;2039529;87;27678;-60
2021/12/30 08:42:46;;;;;;;40.48;23.07;;;;;;;6.05;80.63;100041.84;2039312;87;29888;-61
2021/12/30 08:45:50;;;;;;;41.92;25.85;;;;;;;6.08;80.71;100043.92;2042892;87;31975;-60
2021/12/30 08:48:52;;;;;;;37.23;24.92;;;;;;;6.16;80.76;100040.98;2043397;87;33038;-60
2021/12/30 08:51:54;;;;;;;36.70;23.77;;;;;;;6.25;80.87;100035.80;2043281;87;30524;-60
2021/12/30 08:54:59;;;;;;;33.13;22.25;;;;;;;6.34;80.89;100039.92;2043545;86;27594;-61
2021/12/30 08:58:01;;;;;;;;;;;;;;;6.42;80.88;100041.86;2045813;86;30532;-60
2021/12/30 09:01:05;;;;;;;34.00;22.30;;;;;;;6.49;80.83;100043.83;2043225;87;31508;-62
2021/12/30 09:04:08;;;;;;;40.10;22.55;;;;;;;6.52;80.79;100051.22;2042992;87;34239;-61
2021/12/30 09:07:10;;;;;;;34.40;22.22;;;;;;;6.59;80.72;100049.68;2053665;86;30168;-62
2021/12/30 09:10:18;;;;;;;37.67;24.45;;;;;;;6.63;80.67;100048.62;2049447;85;27677;-60
2021/12/30 09:13:20;;;;;;;40.65;24.92;;;;;;;6.68;80.68;100051.53;2069111;86;29534;-63
2021/12/30 09:16:21;;;;;;;35.92;23.95;;;;;;;6.76;80.70;100051.69;2062164;86;32251;-64
2021/12/30 09:19:27;;;;;;;33.08;23.02;;;;;;;6.82;80.69;100054.98;2038168;87;34189;-62
2021/12/30 09:22:28;;;;;;;33.55;22.45;;;;;;;6.87;80.58;100057.47;2043155;87;33089;-61
2021/12/30 09:25:31;;;;;;;28.98;20.82;;;;;;;6.91;80.53;100063.56;2043340;86;27716;-64
2021/12/30 09:28:33;;;;;;;32.67;22.45;;;;;;;6.94;80.50;100069.63;2066542;86;28915;-61
2021/12/30 09:31:35;;;;;;;41.70;26.97;;;;;;;6.97;80.43;100065.97;2066529;86;32303;-67
2021/12/30 09:34:38;;;;;;;44.58;27.98;;;;;;;6.99;80.40;100058.80;2039360;87;32996;-65
2021/12/30 09:37:43;;;;;;;40.88;27.27;;;;;;;7.02;80.37;100061.34;2039621;87;29957;-61
2021/12/30 09:40:45;;;;;;;44.57;24.30;;;;;;;7.07;80.42;100065.16;2039728;87;28321;-65
2021/12/30 09:43:48;;;;;;;35.15;21.95;;;;;;;7.07;80.42;100065.16;2042411;87;29542;-64
2021/12/30 09:46:52;;;;;;;35.48;21.60;;;;;;;7.10;80.47;100065.04;2042994;86;32434;-64
2021/12/30 09:49:54;;;;;;;35.17;21.33;;;;;;;7.13;80.46;100075.58;2043029;86;32993;-63
2021/12/30 09:52:57;;;;;;;34.67;20.85;;;;;;;7.17;80.56;100074.98;2043083;87;30137;-69
2021/12/30 09:56:00;;;;;;;24.57;16.90;;;;;;;7.23;80.64;100064.11;2061398;86;28335;-62
2021/12/30 09:59:04;;;;;;;24.77;16.73;;;;;;;7.31;80.66;100064.65;2068601;86;29551;-63
2021/12/30 10:02:06;;;;;;;23.45;16.25;;;;;;;7.37;80.69;100052.42;2067480;86;31717;-62
2021/12/30 10:05:16;;;;;;;28.23;16.42;;;;;;;7.45;80.70;100054.30;2068383;85;34194;-63
2021/12/30 10:08:25;;;;;;;30.25;17.70;;;;;;;7.53;80.64;100054.46;2067635;85;30403;-65
2021/12/30 10:11:27;;;;;;;28.30;16.90;;;;;;;7.58;80.61;100049.82;2069089;85;27771;-63
2021/12/30 10:14:39;;;;;;;27.85;18.50;;;;;;;7.64;80.62;100042.88;2041838;86;28882;-61
2021/12/30 10:17:41;;;;;;;29.07;21.48;;;;;;;7.72;80.62;100035.89;2039070;87;31949;-60
2021/12/30 10:20:46;;;;;;;38.25;25.30;;;;;;;7.86;80.67;100041.98;2067575;86;33821;-62
2021/12/30 10:23:51;;;;;;;42.67;28.83;;;;;;;7.99;80.68;100044.52;2031255;87;30098;-61
2021/12/30 10:26:57;;;;;;;50.30;34.60;;;;;;;8.13;80.68;100044.38;1999496;88;28155;-62
2021/12/30 10:29:59;;;;;;;51.45;34.88;;;;;;;8.26;80.59;100046.05;1994963;89;28707;-61
2021/12/30 10:33:16;;;;;;;39.18;25.37;;;;;;;8.39;80.60;100047.23;1994404;89;31968;-62
2021/12/30 10:36:29;;;;;;;34.80;23.50;;;;;;;8.51;80.60;100054.75;1993385;89;33093;-61
2021/12/30 10:39:33;;;;;;;33.30;20.92;;;;;;;8.63;80.57;100059.98;1994462;89;30540;-63
2021/12/30 10:42:37;;;;;;;34.50;22.27;;;;;;;8.78;80.53;100061.55;1994935;89;27764;-61
2021/12/30 10:45:39;;;;;;;54.23;35.08;;;;;;;8.92;80.50;100066.26;1994570;89;29408;-61
2021/12/30 10:49:11;;;;;;;96.35;58.23;;;;;;;9.06;80.46;100072.30;1970317;89;31947;-62
2021/12/30 10:52:15;;;;;;;45.03;26.25;;;;;;;9.16;80.27;100072.73;1990761;89;34334;-60
2021/12/30 10:55:18;;;;;;;30.62;20.00;;;;;;;9.25;80.13;100078.97;1991382;89;29359;-62
2021/12/30 10:58:27;;;;;;;28.90;18.48;;;;;;;9.32;80.05;100075.53;1991598;89;27816;-61
2021/12/30 11:01:29;;;;;;;33.48;18.12;;;;;;;9.39;80.06;100068.47;1991039;89;29511;-63
2021/12/30 11:04:38;;;;;;;32.17;19.17;;;;;;;9.45;79.99;100075.32;1990536;89;32296;-63
2021/12/30 11:07:46;;;;;;;26.65;18.48;;;;;;;9.50;79.83;100063.09;1996414;87;33080;-62
2021/12/30 11:10:48;;;;;;;30.23;18.48;;;;;;;9.54;79.82;100066.87;1998719;87;31800;-62
2021/12/30 11:14:06;;;;;;;32.33;19.23;;;;;;;9.61;79.84;100070.55;2013628;87;28332;-64
2021/12/30 11:17:16;;;;;;;36.88;18.48;;;;;;;9.68;79.67;100057.29;1962753;90;29072;-62
2021/12/30 11:20:19;;;;;;;79.35;45.67;;;;;;;9.72;79.66;100057.54;1978165;89;30642;-62
2021/12/30 11:23:23;;;;;;;70.52;36.85;;;;;;;9.77;79.54;100051.95;2021431;87;29513;-62
2021/12/30 11:26:26;;;;;;;58.02;28.75;;;;;;;9.77;79.45;100059.48;2031257;87;30505;-62
2021/12/30 11:29:27;;;;;;;47.13;25.72;;;;;;;9.78;79.42;100063.05;2041608;86;27633;-62
2021/12/30 11:32:35;;;;;;;43.63;23.67;;;;;;;9.79;79.39;100064.78;2043700;87;29935;-61
2021/12/30 11:35:37;;;;;;;35.40;21.23;;;;;;;9.79;79.32;100071.47;2035453;87;31040;-63
2021/12/30 11:38:40;;;;;;;33.42;20.32;;;;;;;9.78;79.26;100062.56;2030386;87;33850;-64
2021/12/30 11:41:46;;;;;;;40.45;21.68;;;;;;;9.80;79.26;100060.67;2026417;87;29766;-63
2021/12/30 11:44:54;;;;;;;37.30;21.42;;;;;;;9.81;79.17;100058.88;2043971;87;27637;-61
2021/12/30 11:47:58;;;;;;;46.73;25.05;;;;;;;9.84;79.24;100065.42;2043455;87;28851;-62
2021/12/30 11:51:12;;;;;;;45.30;23.15;;;;;;;9.85;79.33;100066.67;2039986;87;31207;-61
2021/12/30 11:54:37;;;;;;;39.42;21.90;;;;;;;9.92;79.31;100070.39;2009601;88;33076;-62
2021/12/30 11:57:39;;;;;;;43.52;23.55;;;;;;;9.97;79.34;100067.87;2009495;87;29192;-63
2021/12/30 12:00:41;;;;;;;43.13;24.63;;;;;;;10.01;79.24;100065.89;2010152;88;27681;-64
2021/12/30 12:03:57;;;;;;;45.30;26.25;;;;;;;10.06;79.27;100067.87;2010037;87;28800;-62
2021/12/30 12:07:02;;;;;;;48.65;28.90;;;;;;;10.12;79.27;100063.52;2009846;88;31109;-66
2021/12/30 12:10:16;;;;;;;47.30;29.50;;;;;;;10.21;79.26;100068.87;2010042;88;33165;-67
2021/12/30 12:13:36;;;;;;;45.73;27.57;;;;;;;10.28;79.18;100072.09;2023737;87;29519;-63
2021/12/30 12:16:55;;;;;;;45.05;29.63;;;;;;;10.30;79.06;100065.73;2027787;87;27639;-62
2021/12/30 12:19:58;;;;;;;44.03;26.77;;;;;;;10.34;78.98;100080.66;1995242;89;28686;-62
2021/12/30 12:23:05;;;;;;;40.70;27.73;;;;;;;10.39;78.98;100091.65;1998573;89;30858;-62
2021/12/30 12:26:23;;;;;;;66.67;41.28;;;;;;;10.43;78.90;100085.20;1993072;88;34229;-63
2021/12/30 12:29:28;;;;;;;109.12;69.77;;;;;;;10.45;78.83;100090.00;2007443;87;29538;-62
2021/12/30 12:32:38;;;;;;;100.45;58.65;;;;;;;10.45;78.74;100082.81;2006579;88;28276;-67
2021/12/30 12:38:51;;;;;;;52.08;30.30;;;;;;;10.49;78.49;100081.72;1934193;90;31253;-63
2021/12/30 12:41:56;;;;;;;41.92;25.35;;;;;;;10.50;78.54;100075.91;1921638;91;27962;-64
2021/12/30 12:45:32;;;;;;;51.33;29.48;;;;;;;10.56;78.59;100067.52;1925649;92;30538;-62
2021/12/30 12:48:43;;;;;;;43.02;26.48;;;;;;;10.62;78.46;100066.32;1926887;91;28221;-63
2021/12/30 12:51:55;;;;;;;41.83;25.35;;;;;;;10.63;78.37;100070.73;1905699;92;29649;-63
2021/12/30 12:54:57;;;;;;;53.35;30.50;;;;;;;10.64;78.30;100065.77;1925547;92;31214;-63
2021/12/30 12:58:09;;;;;;;51.60;26.10;;;;;;;10.66;78.25;100056.33;1937040;91;32971;-63
2021/12/30 13:01:17;;;;;;;44.38;25.52;;;;;;;10.65;77.99;100051.42;1938845;91;29379;-63
2021/12/30 13:04:20;;;;;;;43.38;23.85;;;;;;;10.58;77.94;100040.18;1938637;91;27905;-63
2021/12/30 13:07:23;;;;;;;53.25;32.67;;;;;;;10.52;77.72;100057.91;1937336;91;28872;-64
2021/12/30 13:10:25;;;;;;;54.03;30.88;;;;;;;10.39;77.55;100058.17;1941395;90;31040;-63
2021/12/30 13:13:35;;;;;;;56.25;28.47;;;;;;;10.28;77.50;100054.69;1961515;90;27973;-61
2021/12/30 13:16:40;;;;;;;51.23;28.55;;;;;;;10.22;77.62;100056.36;1961837;90;27780;-64
2021/12/30 13:19:48;;;;;;;60.65;30.20;;;;;;;10.19;77.61;100059.59;1944134;90;27752;-61
2021/12/30 13:22:50;;;;;;;44.08;26.97;;;;;;;10.21;77.67;100062.66;1945916;90;29013;-63
2021/12/30 13:26:07;;;;;;;53.92;28.20;;;;;;;10.23;77.66;100068.80;1961655;90;31346;-62
2021/12/30 13:29:11;;;;;;;46.42;27.07;;;;;;;10.23;77.55;100062.97;1951545;90;34274;-62
2021/12/30 13:32:25;;;;;;;51.28;28.50;;;;;;;10.24;77.60;100054.48;1915876;91;27801;-66
2021/12/30 13:35:32;;;;;;;43.87;24.70;;;;;;;10.25;77.50;100054.88;1969156;90;27767;-62
2021/12/30 13:38:41;;;;;;;45.75;27.32;;;;;;;10.22;77.34;100055.88;1967461;90;29744;-63
2021/12/30 13:41:55;;;;;;;67.75;35.20;;;;;;;10.19;77.22;100056.03;1966725;89;28493;-65
2021/12/30 13:45:02;;;;;;;61.40;35.00;;;;;;;10.11;77.00;100057.77;2001475;88;33820;-64
2021/12/30 13:48:21;;;;;;;47.98;28.15;;;;;;;10.04;76.86;100073.77;2001575;88;29243;-64
2021/12/30 13:51:28;;;;;;;40.80;24.85;;;;;;;9.96;76.70;100068.81;1934540;90;27712;-62
2021/12/30 13:54:28;;;;;;;36.42;21.60;;;;;;;9.87;76.61;100068.80;1960921;89;28653;-62
2021/12/30 13:57:58;;;;;;;34.38;20.77;;;;;;;9.79;76.47;100068.30;1928445;92;32102;-64
2021/12/30 14:01:10;;;;;;;35.35;21.35;;;;;;;9.66;76.46;100072.55;1849939;96;34260;-60
2021/12/30 14:04:17;;;;;;;36.30;21.60;;;;;;;9.57;76.37;100077.42;1869420;94;30191;-61
2021/12/30 14:07:21;;;;;;;36.33;21.05;;;;;;;9.48;76.53;100084.53;1875672;94;28363;-64
2021/12/30 14:10:23;;;;;;;40.38;22.22;;;;;;;9.44;76.62;100074.92;1859511;94;28739;-65
2021/12/30 14:13:39;;;;;;;35.88;20.72;;;;;;;9.42;76.63;100060.79;1878151;94;30501;-63
2021/12/30 14:16:48;;;;;;;33.88;20.00;;;;;;;9.39;76.60;100061.78;1873984;94;33700;-61